sensor_id;sensor_type;location;lat;lon;timestamp;temperature;humidity
20803;DHT22;10562;-33.856;151.182;2022-08-04T00:01:59;20.20;99.90
20803;DHT22;10562;-33.856;151.182;2022-08-04T00:04:38;20.20;99.90
20803;DHT22;10562;-33.856;151.182;2022-08-04T00:07:17;20.10;99.90
20803;DHT22;10562;-33.856;151.182;2022-08-04T00:09:51;20.20;99.90
20803;DHT22;10562;-33.856;151.182;2022-08-04T00:12:23;20.20;99.90
20803;DHT22;10562;-33.856;151.182;2022-08-04T00:14:59;20.20;99.90
20803;DHT22;10562;-33.856;151.182;2022-08-04T00:17:37;20.30;99.90
20803;DHT22;10562;-33.856;151.182;2022-08-04T00:20:09;20.30;99.90
20803;DHT22;10562;-33.856;151.182;2022-08-04T00:22:43;20.30;99.90
20803;DHT22;10562;-33.856;151.182;2022-08-04T00:25:15;20.40;99.90
20803;DHT22;10562;-33.856;151.182;2022-08-04T00:27:46;20.40;99.90
20803;DHT22;10562;-33.856;151.182;2022-08-04T00:30:19;20.40;99.90
20803;DHT22;10562;-33.856;151.182;2022-08-04T00:32:50;20.50;99.90
20803;DHT22;10562;-33.856;151.182;2022-08-04T00:35:20;20.60;99.90
20803;DHT22;10562;-33.856;151.182;2022-08-04T00:37:52;20.60;99.90
20803;DHT22;10562;-33.856;151.182;2022-08-04T00:40:31;20.60;99.90
20803;DHT22;10562;-33.856;151.182;2022-08-04T00:43:14;20.70;99.90
20803;DHT22;10562;-33.856;151.182;2022-08-04T00:51:49;20.60;99.90
20803;DHT22;10562;-33.856;151.182;2022-08-04T00:54:32;20.60;99.90
20803;DHT22;10562;-33.856;151.182;2022-08-04T01:00:07;20.70;99.90
20803;DHT22;10562;-33.856;151.182;2022-08-04T01:02:45;20.80;99.90
20803;DHT22;10562;-33.856;151.182;2022-08-04T01:05:41;20.70;99.90
20803;DHT22;10562;-33.856;151.182;2022-08-04T01:08:33;20.80;99.90
20803;DHT22;10562;-33.856;151.182;2022-08-04T01:11:16;20.80;99.90
20803;DHT22;10562;-33.856;151.182;2022-08-04T01:14:08;20.90;99.90
20803;DHT22;10562;-33.856;151.182;2022-08-04T01:16:48;20.80;99.90
20803;DHT22;10562;-33.856;151.182;2022-08-04T01:19:44;20.80;99.90
20803;DHT22;10562;-33.856;151.182;2022-08-04T01:25:49;20.70;99.90
20803;DHT22;10562;-33.856;151.182;2022-08-04T01:28:29;20.70;99.90
20803;DHT22;10562;-33.856;151.182;2022-08-04T01:31:13;20.80;99.90
20803;DHT22;10562;-33.856;151.182;2022-08-04T01:33:49;20.80;99.90
20803;DHT22;10562;-33.856;151.182;2022-08-04T01:36:24;20.70;99.90
20803;DHT22;10562;-33.856;151.182;2022-08-04T01:38:55;20.80;99.90
20803;DHT22;10562;-33.856;151.182;2022-08-04T01:41:26;20.80;99.90
20803;DHT22;10562;-33.856;151.182;2022-08-04T01:44:01;20.80;99.90
20803;DHT22;10562;-33.856;151.182;2022-08-04T01:46:36;20.80;99.90
20803;DHT22;10562;-33.856;151.182;2022-08-04T01:49:07;20.80;99.90
20803;DHT22;10562;-33.856;151.182;2022-08-04T01:51:40;20.80;99.90
20803;DHT22;10562;-33.856;151.182;2022-08-04T01:54:12;20.80;99.90
20803;DHT22;10562;-33.856;151.182;2022-08-04T01:56:46;20.90;99.90
20803;DHT22;10562;-33.856;151.182;2022-08-04T01:59:19;20.80;99.90
20803;DHT22;10562;-33.856;151.182;2022-08-04T02:01:52;20.80;99.90
20803;DHT22;10562;-33.856;151.182;2022-08-04T02:04:23;20.80;99.90
20803;DHT22;10562;-33.856;151.182;2022-08-04T02:07:05;20.80;99.90
20803;DHT22;10562;-33.856;151.182;2022-08-04T02:09:43;20.80;99.90
20803;DHT22;10562;-33.856;151.182;2022-08-04T02:12:23;20.80;99.90
20803;DHT22;10562;-33.856;151.182;2022-08-04T02:14:59;20.70;99.90
20803;DHT22;10562;-33.856;151.182;2022-08-04T02:17:40;20.80;99.90
20803;DHT22;10562;-33.856;151.182;2022-08-04T02:20:22;20.80;99.90
20803;DHT22;10562;-33.856;151.182;2022-08-04T02:22:59;20.80;99.90
20803;DHT22;10562;-33.856;151.182;2022-08-04T02:25:34;20.80;99.90
20803;DHT22;10562;-33.856;151.182;2022-08-04T02:28:24;20.80;99.90
20803;DHT22;10562;-33.856;151.182;2022-08-04T02:31:13;20.70;99.90
20803;DHT22;10562;-33.856;151.182;2022-08-04T02:33:56;20.70;99.90
20803;DHT22;10562;-33.856;151.182;2022-08-04T02:36:33;20.70;99.90
20803;DHT22;10562;-33.856;151.182;2022-08-04T02:39:05;20.70;99.90
20803;DHT22;10562;-33.856;151.182;2022-08-04T02:41:37;20.60;99.90
20803;DHT22;10562;-33.856;151.182;2022-08-04T02:44:10;20.60;99.90
20803;DHT22;10562;-33.856;151.182;2022-08-04T02:46:43;20.60;99.90
20803;DHT22;10562;-33.856;151.182;2022-08-04T02:49:16;20.60;99.90
20803;DHT22;10562;-33.856;151.182;2022-08-04T02:51:50;20.60;99.90
20803;DHT22;10562;-33.856;151.182;2022-08-04T02:54:24;20.60;99.90
20803;DHT22;10562;-33.856;151.182;2022-08-04T02:57:01;20.60;99.90
20803;DHT22;10562;-33.856;151.182;2022-08-04T02:59:44;20.60;99.90
20803;DHT22;10562;-33.856;151.182;2022-08-04T03:02:36;20.60;99.90
20803;DHT22;10562;-33.856;151.182;2022-08-04T03:05:18;20.60;99.90
20803;DHT22;10562;-33.856;151.182;2022-08-04T03:08:29;20.70;99.90
20803;DHT22;10562;-33.856;151.182;2022-08-04T03:14:43;20.80;99.90
20803;DHT22;10562;-33.856;151.182;2022-08-04T03:17:47;20.80;99.90
20803;DHT22;10562;-33.856;151.182;2022-08-04T03:20:52;20.80;99.90
20803;DHT22;10562;-33.856;151.182;2022-08-04T03:26:58;20.80;99.90
20803;DHT22;10562;-33.856;151.182;2022-08-04T03:36:05;20.70;99.90
20803;DHT22;10562;-33.856;151.182;2022-08-04T03:41:55;20.60;99.90
20803;DHT22;10562;-33.856;151.182;2022-08-04T03:44:58;20.60;99.90
20803;DHT22;10562;-33.856;151.182;2022-08-04T03:51:05;20.50;99.90
20803;DHT22;10562;-33.856;151.182;2022-08-04T03:57:36;20.60;99.90
20803;DHT22;10562;-33.856;151.182;2022-08-04T04:00:10;20.60;99.90
20803;DHT22;10562;-33.856;151.182;2022-08-04T04:03:10;20.60;99.90
20803;DHT22;10562;-33.856;151.182;2022-08-04T04:06:11;20.60;99.90
20803;DHT22;10562;-33.856;151.182;2022-08-04T04:09:31;20.60;99.90
20803;DHT22;10562;-33.856;151.182;2022-08-04T04:12:34;20.60;99.90
20803;DHT22;10562;-33.856;151.182;2022-08-04T04:15:26;20.60;99.90
20803;DHT22;10562;-33.856;151.182;2022-08-04T04:18:19;20.60;99.90
20803;DHT22;10562;-33.856;151.182;2022-08-04T04:24:08;20.70;99.90
20803;DHT22;10562;-33.856;151.182;2022-08-04T04:26:55;20.80;99.90
20803;DHT22;10562;-33.856;151.182;2022-08-04T04:30:00;20.90;99.90
20803;DHT22;10562;-33.856;151.182;2022-08-04T04:35:34;20.90;99.90
20803;DHT22;10562;-33.856;151.182;2022-08-04T04:41:58;20.90;99.90
20803;DHT22;10562;-33.856;151.182;2022-08-04T04:44:51;20.90;99.90
20803;DHT22;10562;-33.856;151.182;2022-08-04T04:47:36;21.00;99.90
20803;DHT22;10562;-33.856;151.182;2022-08-04T04:50:13;21.00;99.90
20803;DHT22;10562;-33.856;151.182;2022-08-04T04:52:51;21.10;99.90
20803;DHT22;10562;-33.856;151.182;2022-08-04T04:55:26;21.00;99.90
20803;DHT22;10562;-33.856;151.182;2022-08-04T04:58:01;21.10;99.90
20803;DHT22;10562;-33.856;151.182;2022-08-04T05:00:48;21.00;99.90
20803;DHT22;10562;-33.856;151.182;2022-08-04T05:06:50;20.90;99.90
20803;DHT22;10562;-33.856;151.182;2022-08-04T05:09:31;20.90;99.90
20803;DHT22;10562;-33.856;151.182;2022-08-04T05:15:14;20.90;99.90
20803;DHT22;10562;-33.856;151.182;2022-08-04T05:17:49;20.80;99.90
20803;DHT22;10562;-33.856;151.182;2022-08-04T05:20:24;20.80;99.90
20803;DHT22;10562;-33.856;151.182;2022-08-04T05:22:58;20.80;99.90
20803;DHT22;10562;-33.856;151.182;2022-08-04T05:25:34;20.80;99.90
20803;DHT22;10562;-33.856;151.182;2022-08-04T05:28:11;20.70;99.90
20803;DHT22;10562;-33.856;151.182;2022-08-04T05:30:58;20.50;99.90
20803;DHT22;10562;-33.856;151.182;2022-08-04T05:33:33;20.40;99.90
20803;DHT22;10562;-33.856;151.182;2022-08-04T05:36:13;20.30;99.90
20803;DHT22;10562;-33.856;151.182;2022-08-04T05:38:47;20.40;99.90
20803;DHT22;10562;-33.856;151.182;2022-08-04T05:41:19;20.30;99.90
20803;DHT22;10562;-33.856;151.182;2022-08-04T05:43:50;20.30;99.90
20803;DHT22;10562;-33.856;151.182;2022-08-04T05:46:23;20.20;99.90
20803;DHT22;10562;-33.856;151.182;2022-08-04T05:48:55;20.00;99.90
20803;DHT22;10562;-33.856;151.182;2022-08-04T05:51:27;19.90;99.90
20803;DHT22;10562;-33.856;151.182;2022-08-04T05:53:59;19.70;99.90
20803;DHT22;10562;-33.856;151.182;2022-08-04T05:56:30;19.70;99.90
20803;DHT22;10562;-33.856;151.182;2022-08-04T05:59:03;19.70;99.90
20803;DHT22;10562;-33.856;151.182;2022-08-04T06:01:38;19.70;99.90
20803;DHT22;10562;-33.856;151.182;2022-08-04T06:04:10;19.60;99.90
20803;DHT22;10562;-33.856;151.182;2022-08-04T06:06:42;19.60;99.90
20803;DHT22;10562;-33.856;151.182;2022-08-04T06:09:13;19.50;99.90
20803;DHT22;10562;-33.856;151.182;2022-08-04T06:11:46;19.40;99.90
20803;DHT22;10562;-33.856;151.182;2022-08-04T06:14:18;19.40;99.90
20803;DHT22;10562;-33.856;151.182;2022-08-04T06:16:53;19.60;99.90
20803;DHT22;10562;-33.856;151.182;2022-08-04T06:19:26;19.60;99.90
20803;DHT22;10562;-33.856;151.182;2022-08-04T06:22:00;19.60;99.90
20803;DHT22;10562;-33.856;151.182;2022-08-04T06:24:33;19.80;99.90
20803;DHT22;10562;-33.856;151.182;2022-08-04T06:27:06;19.80;99.90
20803;DHT22;10562;-33.856;151.182;2022-08-04T06:29:38;19.90;99.90
20803;DHT22;10562;-33.856;151.182;2022-08-04T06:32:13;19.90;99.90
20803;DHT22;10562;-33.856;151.182;2022-08-04T06:34:55;20.00;99.90
20803;DHT22;10562;-33.856;151.182;2022-08-04T06:37:29;20.00;99.90
20803;DHT22;10562;-33.856;151.182;2022-08-04T06:40:02;20.10;99.90
20803;DHT22;10562;-33.856;151.182;2022-08-04T06:42:33;20.10;99.90
20803;DHT22;10562;-33.856;151.182;2022-08-04T06:45:06;20.10;99.90
20803;DHT22;10562;-33.856;151.182;2022-08-04T06:47:41;20.00;99.90
20803;DHT22;10562;-33.856;151.182;2022-08-04T06:50:12;20.00;99.90
20803;DHT22;10562;-33.856;151.182;2022-08-04T06:52:44;20.00;99.90
20803;DHT22;10562;-33.856;151.182;2022-08-04T06:55:15;20.00;99.90
20803;DHT22;10562;-33.856;151.182;2022-08-04T06:57:46;20.00;99.90
20803;DHT22;10562;-33.856;151.182;2022-08-04T07:00:17;20.00;99.90
20803;DHT22;10562;-33.856;151.182;2022-08-04T07:02:53;19.90;99.90
20803;DHT22;10562;-33.856;151.182;2022-08-04T07:05:24;19.80;99.90
20803;DHT22;10562;-33.856;151.182;2022-08-04T07:07:55;19.80;99.90
20803;DHT22;10562;-33.856;151.182;2022-08-04T07:10:27;19.80;99.90
20803;DHT22;10562;-33.856;151.182;2022-08-04T07:12:58;19.70;99.90
20803;DHT22;10562;-33.856;151.182;2022-08-04T07:15:30;19.70;99.90
20803;DHT22;10562;-33.856;151.182;2022-08-04T07:18:04;19.60;99.90
20803;DHT22;10562;-33.856;151.182;2022-08-04T07:20:35;19.50;99.90
20803;DHT22;10562;-33.856;151.182;2022-08-04T07:23:10;19.40;99.90
20803;DHT22;10562;-33.856;151.182;2022-08-04T07:25:44;19.30;99.90
20803;DHT22;10562;-33.856;151.182;2022-08-04T07:28:20;19.10;99.90
20803;DHT22;10562;-33.856;151.182;2022-08-04T07:30:53;18.90;99.90
20803;DHT22;10562;-33.856;151.182;2022-08-04T07:33:26;18.80;99.90
20803;DHT22;10562;-33.856;151.182;2022-08-04T07:35:57;18.70;99.90
20803;DHT22;10562;-33.856;151.182;2022-08-04T07:47:30;18.60;99.90
20803;DHT22;10562;-33.856;151.182;2022-08-04T07:55:57;18.60;99.90
20803;DHT22;10562;-33.856;151.182;2022-08-04T07:58:28;18.60;99.90
20803;DHT22;10562;-33.856;151.182;2022-08-04T08:00:59;18.70;99.90
20803;DHT22;10562;-33.856;151.182;2022-08-04T08:03:30;18.70;99.90
20803;DHT22;10562;-33.856;151.182;2022-08-04T08:06:01;18.70;99.90
20803;DHT22;10562;-33.856;151.182;2022-08-04T08:08:37;18.70;99.90
20803;DHT22;10562;-33.856;151.182;2022-08-04T08:11:08;18.60;99.90
20803;DHT22;10562;-33.856;151.182;2022-08-04T08:13:40;18.40;99.90
20803;DHT22;10562;-33.856;151.182;2022-08-04T08:16:12;18.20;99.90
20803;DHT22;10562;-33.856;151.182;2022-08-04T08:18:43;18.10;99.90
20803;DHT22;10562;-33.856;151.182;2022-08-04T08:21:14;17.90;99.90
20803;DHT22;10562;-33.856;151.182;2022-08-04T08:23:47;17.80;99.90
20803;DHT22;10562;-33.856;151.182;2022-08-04T08:26:18;17.80;99.90
20803;DHT22;10562;-33.856;151.182;2022-08-04T08:28:49;17.70;99.90
20803;DHT22;10562;-33.856;151.182;2022-08-04T08:31:20;17.70;99.90
20803;DHT22;10562;-33.856;151.182;2022-08-04T08:33:51;17.60;99.90
20803;DHT22;10562;-33.856;151.182;2022-08-04T08:36:27;17.60;99.90
20803;DHT22;10562;-33.856;151.182;2022-08-04T08:39:04;17.60;99.90
20803;DHT22;10562;-33.856;151.182;2022-08-04T08:45:15;17.50;99.90
20803;DHT22;10562;-33.856;151.182;2022-08-04T08:56:52;17.30;99.90
20803;DHT22;10562;-33.856;151.182;2022-08-04T08:59:45;17.30;99.90
20803;DHT22;10562;-33.856;151.182;2022-08-04T09:02:51;17.30;99.90
20803;DHT22;10562;-33.856;151.182;2022-08-04T09:05:40;17.20;99.90
20803;DHT22;10562;-33.856;151.182;2022-08-04T09:08:24;17.20;99.90
20803;DHT22;10562;-33.856;151.182;2022-08-04T09:11:00;17.20;99.90
20803;DHT22;10562;-33.856;151.182;2022-08-04T09:13:40;17.30;99.90
20803;DHT22;10562;-33.856;151.182;2022-08-04T09:16:18;17.30;99.90
20803;DHT22;10562;-33.856;151.182;2022-08-04T09:18:55;17.30;99.90
20803;DHT22;10562;-33.856;151.182;2022-08-04T09:21:32;17.30;99.90
20803;DHT22;10562;-33.856;151.182;2022-08-04T09:24:13;17.30;99.90
20803;DHT22;10562;-33.856;151.182;2022-08-04T09:26:48;17.30;99.90
20803;DHT22;10562;-33.856;151.182;2022-08-04T09:29:32;17.30;99.90
20803;DHT22;10562;-33.856;151.182;2022-08-04T09:32:07;17.30;99.90
20803;DHT22;10562;-33.856;151.182;2022-08-04T09:34:46;17.40;99.90
20803;DHT22;10562;-33.856;151.182;2022-08-04T09:37:27;17.30;99.90
20803;DHT22;10562;-33.856;151.182;2022-08-04T09:40:05;17.30;99.90
20803;DHT22;10562;-33.856;151.182;2022-08-04T09:42:45;17.30;99.90
20803;DHT22;10562;-33.856;151.182;2022-08-04T09:45:26;17.30;99.90
20803;DHT22;10562;-33.856;151.182;2022-08-04T09:48:02;17.30;99.90
20803;DHT22;10562;-33.856;151.182;2022-08-04T09:50:36;17.20;99.90
20803;DHT22;10562;-33.856;151.182;2022-08-04T09:53:19;17.20;99.90
20803;DHT22;10562;-33.856;151.182;2022-08-04T09:56:02;17.20;99.90
20803;DHT22;10562;-33.856;151.182;2022-08-04T09:58:51;17.20;99.90
20803;DHT22;10562;-33.856;151.182;2022-08-04T10:01:27;17.10;99.90
20803;DHT22;10562;-33.856;151.182;2022-08-04T10:04:02;17.20;99.90
20803;DHT22;10562;-33.856;151.182;2022-08-04T10:10:02;17.20;99.90
20803;DHT22;10562;-33.856;151.182;2022-08-04T10:12:42;17.20;99.90
20803;DHT22;10562;-33.856;151.182;2022-08-04T10:15:20;17.20;99.90
20803;DHT22;10562;-33.856;151.182;2022-08-04T10:18:14;17.20;99.90
20803;DHT22;10562;-33.856;151.182;2022-08-04T10:21:02;17.20;99.90
20803;DHT22;10562;-33.856;151.182;2022-08-04T10:23:45;17.20;99.90
20803;DHT22;10562;-33.856;151.182;2022-08-04T10:26:28;17.20;99.90
20803;DHT22;10562;-33.856;151.182;2022-08-04T10:29:04;17.30;99.90
20803;DHT22;10562;-33.856;151.182;2022-08-04T10:31:47;17.30;99.90
20803;DHT22;10562;-33.856;151.182;2022-08-04T10:34:28;17.30;99.90
20803;DHT22;10562;-33.856;151.182;2022-08-04T10:37:05;17.30;99.90
20803;DHT22;10562;-33.856;151.182;2022-08-04T10:39:45;17.30;99.90
20803;DHT22;10562;-33.856;151.182;2022-08-04T10:42:39;17.30;99.90
20803;DHT22;10562;-33.856;151.182;2022-08-04T10:45:18;17.30;99.90
20803;DHT22;10562;-33.856;151.182;2022-08-04T10:47:57;17.30;99.90
20803;DHT22;10562;-33.856;151.182;2022-08-04T10:50:30;17.30;99.90
20803;DHT22;10562;-33.856;151.182;2022-08-04T10:53:08;17.30;99.90
20803;DHT22;10562;-33.856;151.182;2022-08-04T10:55:44;17.30;99.90
20803;DHT22;10562;-33.856;151.182;2022-08-04T10:58:20;17.30;99.90
20803;DHT22;10562;-33.856;151.182;2022-08-04T11:00:56;17.30;99.90
20803;DHT22;10562;-33.856;151.182;2022-08-04T11:03:34;17.40;99.90
20803;DHT22;10562;-33.856;151.182;2022-08-04T11:06:09;17.40;99.90
20803;DHT22;10562;-33.856;151.182;2022-08-04T11:08:43;17.40;99.90
20803;DHT22;10562;-33.856;151.182;2022-08-04T11:11:23;17.40;99.90
20803;DHT22;10562;-33.856;151.182;2022-08-04T11:14:01;17.40;99.90
20803;DHT22;10562;-33.856;151.182;2022-08-04T11:16:40;17.40;99.90
20803;DHT22;10562;-33.856;151.182;2022-08-04T11:19:19;17.40;99.90
20803;DHT22;10562;-33.856;151.182;2022-08-04T11:21:59;17.50;99.90
20803;DHT22;10562;-33.856;151.182;2022-08-04T11:24:39;17.50;99.90
20803;DHT22;10562;-33.856;151.182;2022-08-04T11:27:18;17.50;99.90
20803;DHT22;10562;-33.856;151.182;2022-08-04T11:30:00;17.50;99.90
20803;DHT22;10562;-33.856;151.182;2022-08-04T11:32:41;17.60;99.90
20803;DHT22;10562;-33.856;151.182;2022-08-04T11:35:18;17.50;99.90
20803;DHT22;10562;-33.856;151.182;2022-08-04T11:38:02;17.50;99.90
20803;DHT22;10562;-33.856;151.182;2022-08-04T11:40:38;17.40;99.90
20803;DHT22;10562;-33.856;151.182;2022-08-04T11:43:15;17.40;99.90
20803;DHT22;10562;-33.856;151.182;2022-08-04T11:45:54;17.50;99.90
20803;DHT22;10562;-33.856;151.182;2022-08-04T11:48:31;17.50;99.90
20803;DHT22;10562;-33.856;151.182;2022-08-04T11:51:06;17.50;99.90
20803;DHT22;10562;-33.856;151.182;2022-08-04T11:53:39;17.50;99.90
20803;DHT22;10562;-33.856;151.182;2022-08-04T11:56:12;17.40;99.90
20803;DHT22;10562;-33.856;151.182;2022-08-04T11:58:44;17.40;99.90
20803;DHT22;10562;-33.856;151.182;2022-08-04T12:01:32;17.40;99.90
20803;DHT22;10562;-33.856;151.182;2022-08-04T12:04:12;17.40;99.90
20803;DHT22;10562;-33.856;151.182;2022-08-04T12:06:48;17.30;99.90
20803;DHT22;10562;-33.856;151.182;2022-08-04T12:09:35;17.20;99.90
20803;DHT22;10562;-33.856;151.182;2022-08-04T12:12:15;17.10;99.90
20803;DHT22;10562;-33.856;151.182;2022-08-04T12:14:57;17.10;99.90
20803;DHT22;10562;-33.856;151.182;2022-08-04T12:17:33;17.10;99.90
20803;DHT22;10562;-33.856;151.182;2022-08-04T12:20:06;17.10;99.90
20803;DHT22;10562;-33.856;151.182;2022-08-04T12:22:45;17.10;99.90
20803;DHT22;10562;-33.856;151.182;2022-08-04T12:25:20;17.10;99.90
20803;DHT22;10562;-33.856;151.182;2022-08-04T12:28:04;17.00;99.90
20803;DHT22;10562;-33.856;151.182;2022-08-04T12:30:36;17.00;99.90
20803;DHT22;10562;-33.856;151.182;2022-08-04T12:33:14;17.00;99.90
20803;DHT22;10562;-33.856;151.182;2022-08-04T12:35:56;16.90;99.90
20803;DHT22;10562;-33.856;151.182;2022-08-04T12:38:32;17.00;99.90
20803;DHT22;10562;-33.856;151.182;2022-08-04T12:41:05;17.00;99.90
20803;DHT22;10562;-33.856;151.182;2022-08-04T12:43:38;17.00;99.90
20803;DHT22;10562;-33.856;151.182;2022-08-04T12:46:10;17.00;99.90
20803;DHT22;10562;-33.856;151.182;2022-08-04T12:48:45;17.00;99.90
20803;DHT22;10562;-33.856;151.182;2022-08-04T12:51:17;16.90;99.90
20803;DHT22;10562;-33.856;151.182;2022-08-04T12:53:51;17.00;99.90
20803;DHT22;10562;-33.856;151.182;2022-08-04T12:56:28;17.00;99.90
20803;DHT22;10562;-33.856;151.182;2022-08-04T12:59:03;17.00;99.90
20803;DHT22;10562;-33.856;151.182;2022-08-04T13:01:35;17.00;99.90
20803;DHT22;10562;-33.856;151.182;2022-08-04T13:04:14;17.00;99.90
20803;DHT22;10562;-33.856;151.182;2022-08-04T13:06:52;17.00;99.90
20803;DHT22;10562;-33.856;151.182;2022-08-04T13:09:30;16.90;99.90
20803;DHT22;10562;-33.856;151.182;2022-08-04T13:12:11;16.80;99.90
20803;DHT22;10562;-33.856;151.182;2022-08-04T13:14:42;16.90;99.90
20803;DHT22;10562;-33.856;151.182;2022-08-04T13:17:14;16.90;99.90
20803;DHT22;10562;-33.856;151.182;2022-08-04T13:19:47;16.90;99.90
20803;DHT22;10562;-33.856;151.182;2022-08-04T13:22:25;16.90;99.90
20803;DHT22;10562;-33.856;151.182;2022-08-04T13:24:59;16.90;99.90
20803;DHT22;10562;-33.856;151.182;2022-08-04T13:27:32;16.90;99.90
20803;DHT22;10562;-33.856;151.182;2022-08-04T13:30:03;16.90;99.90
20803;DHT22;10562;-33.856;151.182;2022-08-04T13:32:34;16.90;99.90
20803;DHT22;10562;-33.856;151.182;2022-08-04T13:35:08;16.90;99.90
20803;DHT22;10562;-33.856;151.182;2022-08-04T13:37:39;16.90;99.90
20803;DHT22;10562;-33.856;151.182;2022-08-04T13:40:14;16.90;99.90
20803;DHT22;10562;-33.856;151.182;2022-08-04T13:42:51;17.00;99.90
20803;DHT22;10562;-33.856;151.182;2022-08-04T13:45:23;17.00;99.90
20803;DHT22;10562;-33.856;151.182;2022-08-04T13:47:59;17.10;99.90
20803;DHT22;10562;-33.856;151.182;2022-08-04T13:50:32;17.20;99.90
20803;DHT22;10562;-33.856;151.182;2022-08-04T13:53:03;17.20;99.90
20803;DHT22;10562;-33.856;151.182;2022-08-04T13:55:35;17.20;99.90
20803;DHT22;10562;-33.856;151.182;2022-08-04T13:58:09;17.20;99.90
20803;DHT22;10562;-33.856;151.182;2022-08-04T14:00:44;17.30;99.90
20803;DHT22;10562;-33.856;151.182;2022-08-04T14:03:24;17.30;99.90
20803;DHT22;10562;-33.856;151.182;2022-08-04T14:06:14;17.30;99.90
20803;DHT22;10562;-33.856;151.182;2022-08-04T14:08:51;17.30;99.90
20803;DHT22;10562;-33.856;151.182;2022-08-04T14:11:29;17.30;99.90
20803;DHT22;10562;-33.856;151.182;2022-08-04T14:14:16;17.30;99.90
20803;DHT22;10562;-33.856;151.182;2022-08-04T14:17:02;17.30;99.90
20803;DHT22;10562;-33.856;151.182;2022-08-04T14:19:51;17.40;99.90
20803;DHT22;10562;-33.856;151.182;2022-08-04T14:22:33;17.40;99.90
20803;DHT22;10562;-33.856;151.182;2022-08-04T14:25:08;17.40;99.90
20803;DHT22;10562;-33.856;151.182;2022-08-04T14:27:45;17.40;99.90
20803;DHT22;10562;-33.856;151.182;2022-08-04T14:30:29;17.30;99.90
20803;DHT22;10562;-33.856;151.182;2022-08-04T14:33:03;17.40;99.90
20803;DHT22;10562;-33.856;151.182;2022-08-04T14:35:34;17.30;99.90
20803;DHT22;10562;-33.856;151.182;2022-08-04T14:38:07;17.30;99.90
20803;DHT22;10562;-33.856;151.182;2022-08-04T14:40:39;17.20;99.90
20803;DHT22;10562;-33.856;151.182;2022-08-04T14:43:13;17.20;99.90
20803;DHT22;10562;-33.856;151.182;2022-08-04T14:45:48;17.20;99.90
20803;DHT22;10562;-33.856;151.182;2022-08-04T14:48:21;17.20;99.90
20803;DHT22;10562;-33.856;151.182;2022-08-04T14:50:52;17.20;99.90
20803;DHT22;10562;-33.856;151.182;2022-08-04T14:53:25;17.20;99.90
20803;DHT22;10562;-33.856;151.182;2022-08-04T14:55:57;17.20;99.90
20803;DHT22;10562;-33.856;151.182;2022-08-04T14:58:29;17.20;99.90
20803;DHT22;10562;-33.856;151.182;2022-08-04T15:01:05;17.30;99.90
20803;DHT22;10562;-33.856;151.182;2022-08-04T15:03:38;17.30;99.90
20803;DHT22;10562;-33.856;151.182;2022-08-04T15:06:10;17.30;99.90
20803;DHT22;10562;-33.856;151.182;2022-08-04T15:08:41;17.30;99.90
20803;DHT22;10562;-33.856;151.182;2022-08-04T15:11:12;17.20;99.90
20803;DHT22;10562;-33.856;151.182;2022-08-04T15:13:43;17.10;99.90
20803;DHT22;10562;-33.856;151.182;2022-08-04T15:16:16;17.00;99.90
20803;DHT22;10562;-33.856;151.182;2022-08-04T15:18:47;17.00;99.90
20803;DHT22;10562;-33.856;151.182;2022-08-04T15:21:19;16.90;99.90
20803;DHT22;10562;-33.856;151.182;2022-08-04T15:23:50;17.00;99.90
20803;DHT22;10562;-33.856;151.182;2022-08-04T15:26:27;16.90;99.90
20803;DHT22;10562;-33.856;151.182;2022-08-04T15:29:06;17.00;99.90
20803;DHT22;10562;-33.856;151.182;2022-08-04T15:31:42;17.00;99.90
20803;DHT22;10562;-33.856;151.182;2022-08-04T15:34:13;17.20;99.90
20803;DHT22;10562;-33.856;151.182;2022-08-04T15:36:50;17.30;99.90
20803;DHT22;10562;-33.856;151.182;2022-08-04T15:39:32;17.30;99.90
20803;DHT22;10562;-33.856;151.182;2022-08-04T15:42:17;17.20;99.90
20803;DHT22;10562;-33.856;151.182;2022-08-04T15:45:11;17.20;99.90
20803;DHT22;10562;-33.856;151.182;2022-08-04T15:51:05;17.20;99.90
20803;DHT22;10562;-33.856;151.182;2022-08-04T15:56:49;17.20;99.90
20803;DHT22;10562;-33.856;151.182;2022-08-04T16:02:41;17.40;99.90
20803;DHT22;10562;-33.856;151.182;2022-08-04T16:05:36;17.40;99.90
20803;DHT22;10562;-33.856;151.182;2022-08-04T16:08:13;17.40;99.90
20803;DHT22;10562;-33.856;151.182;2022-08-04T16:10:46;17.40;99.90
20803;DHT22;10562;-33.856;151.182;2022-08-04T16:13:19;17.40;99.90
20803;DHT22;10562;-33.856;151.182;2022-08-04T16:15:51;17.40;99.90
20803;DHT22;10562;-33.856;151.182;2022-08-04T16:18:38;17.40;99.90
20803;DHT22;10562;-33.856;151.182;2022-08-04T16:21:25;17.40;99.90
20803;DHT22;10562;-33.856;151.182;2022-08-04T16:24:14;17.20;99.90
20803;DHT22;10562;-33.856;151.182;2022-08-04T16:26:52;17.20;99.90
20803;DHT22;10562;-33.856;151.182;2022-08-04T16:29:29;17.10;99.90
20803;DHT22;10562;-33.856;151.182;2022-08-04T16:32:15;17.00;99.90
20803;DHT22;10562;-33.856;151.182;2022-08-04T16:34:53;16.90;99.90
20803;DHT22;10562;-33.856;151.182;2022-08-04T16:37:34;16.90;99.90
20803;DHT22;10562;-33.856;151.182;2022-08-04T16:40:26;16.90;99.90
20803;DHT22;10562;-33.856;151.182;2022-08-04T16:43:03;16.70;99.90
20803;DHT22;10562;-33.856;151.182;2022-08-04T16:45:44;16.70;99.90
20803;DHT22;10562;-33.856;151.182;2022-08-04T16:48:16;16.70;99.90
20803;DHT22;10562;-33.856;151.182;2022-08-04T16:50:53;16.60;99.90
20803;DHT22;10562;-33.856;151.182;2022-08-04T16:53:27;16.50;99.90
20803;DHT22;10562;-33.856;151.182;2022-08-04T16:55:58;16.40;99.90
20803;DHT22;10562;-33.856;151.182;2022-08-04T16:58:30;16.40;99.90
20803;DHT22;10562;-33.856;151.182;2022-08-04T17:01:07;16.50;99.90
20803;DHT22;10562;-33.856;151.182;2022-08-04T17:03:39;16.40;99.90
20803;DHT22;10562;-33.856;151.182;2022-08-04T17:06:12;16.50;99.90
20803;DHT22;10562;-33.856;151.182;2022-08-04T17:08:47;16.60;99.90
20803;DHT22;10562;-33.856;151.182;2022-08-04T17:11:18;16.80;99.90
20803;DHT22;10562;-33.856;151.182;2022-08-04T17:14:00;16.80;99.90
20803;DHT22;10562;-33.856;151.182;2022-08-04T17:16:33;16.90;99.90
20803;DHT22;10562;-33.856;151.182;2022-08-04T17:19:05;16.80;99.90
20803;DHT22;10562;-33.856;151.182;2022-08-04T17:21:36;16.90;99.90
20803;DHT22;10562;-33.856;151.182;2022-08-04T17:24:09;16.80;99.90